createdAt,value
2022-08-02T00:02:57.424Z,86.18
2022-08-02T00:06:01.053Z,86.18
2022-08-02T00:09:05.900Z,86.24
2022-08-02T00:12:12.590Z,86.14
2022-08-02T00:15:20.196Z,85.99
2022-08-02T00:18:23.995Z,86.19
2022-08-02T00:21:27.737Z,86.34
2022-08-02T00:24:31.407Z,86.71
2022-08-02T00:27:36.567Z,87.15
2022-08-02T00:30:40.628Z,87.05
2022-08-02T00:34:26.205Z,87.53
2022-08-02T00:37:07.962Z,87.21
2022-08-02T00:40:13.023Z,87.51
2022-08-02T00:43:19.329Z,87.24
2022-08-02T00:46:23.519Z,87.32
2022-08-02T00:49:27.379Z,87.26
2022-08-02T00:52:31.183Z,87.71
2022-08-02T00:55:35.093Z,87.78
2022-08-02T00:58:40.866Z,87.84
2022-08-02T01:01:56.467Z,87.64
2022-08-02T01:05:01.798Z,87.57
2022-08-02T01:08:05.829Z,87.48
2022-08-02T01:11:10.007Z,87.94
2022-08-02T01:14:16.879Z,87.81
2022-08-02T01:17:31.600Z,87.99
2022-08-02T01:21:15.728Z,88.28
2022-08-02T01:24:38.152Z,87.94
2022-08-02T01:28:05.318Z,87.93
2022-08-02T01:31:20.185Z,88.44
2022-08-02T01:34:42.352Z,88.51
2022-08-02T01:37:56.123Z,88.68
2022-08-02T01:41:03.287Z,88.43
2022-08-02T01:44:10.339Z,88.47
2022-08-02T01:47:20.805Z,88.66
2022-08-02T01:50:32.639Z,88.57
2022-08-02T01:53:39.416Z,89.01
2022-08-02T01:56:45.770Z,88.46
2022-08-02T01:59:52.677Z,88.59
2022-08-02T02:03:01.362Z,88.77
2022-08-02T02:06:09.672Z,88.39
2022-08-02T02:09:16.596Z,88.79
2022-08-02T02:12:24.448Z,88.20
2022-08-02T02:15:32.131Z,88.10
2022-08-02T02:18:41.664Z,88.06
2022-08-02T02:21:45.592Z,88.05
2022-08-02T02:24:49.419Z,88.11
2022-08-02T02:28:01.980Z,87.99
2022-08-02T02:31:11.401Z,87.97
2022-08-02T02:34:19.350Z,87.87
2022-08-02T02:37:26.234Z,87.75
2022-08-02T02:40:31.191Z,87.93
2022-08-02T02:43:39.457Z,88.21
2022-08-02T02:46:46.048Z,87.42
2022-08-02T02:49:52.154Z,87.82
2022-08-02T02:52:57.027Z,87.62
2022-08-02T02:56:02.934Z,88.08
2022-08-02T02:59:09.223Z,87.95
2022-08-02T03:02:15.381Z,87.45
2022-08-02T03:05:19.079Z,87.89
2022-08-02T03:08:22.835Z,87.89
2022-08-02T03:11:29.874Z,88.05
2022-08-02T03:14:34.850Z,87.94
2022-08-02T03:17:46.150Z,88.90
2022-08-02T03:20:51.523Z,88.13
2022-08-02T03:23:55.211Z,88.12
2022-08-02T03:26:58.886Z,88.30
2022-08-02T03:30:02.610Z,88.27
2022-08-02T03:33:07.671Z,88.09
2022-08-02T03:36:16.406Z,88.13
2022-08-02T03:39:21.825Z,87.65
2022-08-02T03:42:27.960Z,87.89
2022-08-02T03:45:34.021Z,88.18
2022-08-02T03:48:40.126Z,88.42
2022-08-02T03:51:44.448Z,88.97
2022-08-02T03:54:48.094Z,88.94
2022-08-02T03:57:52.159Z,88.67
2022-08-02T04:00:58.930Z,89.30
2022-08-02T04:04:04.037Z,89.47
2022-08-02T04:07:08.323Z,89.44
2022-08-02T04:10:12.541Z,89.30
2022-08-02T04:13:16.176Z,89.69
2022-08-02T04:16:29.688Z,89.87
2022-08-02T04:19:43.685Z,89.32
2022-08-02T04:22:54.121Z,89.54
2022-08-02T04:26:00.353Z,88.84
2022-08-02T04:29:06.866Z,88.53
2022-08-02T04:32:11.489Z,89.32
2022-08-02T04:35:19.660Z,89.01
2022-08-02T04:38:23.843Z,89.37
2022-08-02T04:41:42.362Z,89.12
2022-08-02T04:44:47.480Z,88.74
2022-08-02T04:48:03.385Z,88.91
2022-08-02T04:51:09.375Z,89.70
2022-08-02T04:54:14.095Z,89.01
2022-08-02T04:57:34.196Z,88.38
2022-08-02T05:00:37.907Z,87.58
2022-08-02T05:03:41.610Z,87.30
2022-08-02T05:06:46.704Z,86.29
2022-08-02T05:09:50.280Z,86.08
2022-08-02T05:12:54.301Z,85.50
2022-08-02T05:15:58.939Z,85.71
2022-08-02T05:19:03.436Z,85.55
2022-08-02T05:22:08.914Z,85.49
2022-08-02T05:25:13.361Z,85.34
2022-08-02T05:28:17.174Z,85.92
2022-08-02T05:31:25.958Z,85.78
2022-08-02T05:34:29.768Z,85.01
2022-08-02T05:37:35.312Z,84.64
2022-08-02T05:40:54.490Z,83.68
2022-08-02T05:43:58.456Z,82.78
2022-08-02T05:47:02.164Z,81.81
2022-08-02T05:50:08.128Z,81.59
2022-08-02T05:53:25.987Z,80.69
2022-08-02T05:56:36.424Z,79.83
2022-08-02T05:59:49.535Z,78.23
2022-08-02T06:03:19.093Z,78.38
2022-08-02T06:06:26.708Z,77.34
2022-08-02T06:09:34.243Z,76.33
2022-08-02T06:12:49.783Z,77.16
2022-08-02T06:15:55.908Z,76.96
2022-08-02T06:19:01.291Z,76.49
2022-08-02T06:22:33.088Z,74.96
2022-08-02T06:25:49.739Z,74.87
2022-08-02T06:28:56.524Z,74.02
2022-08-02T06:32:00.963Z,73.43
2022-08-02T06:35:06.664Z,73.42
2022-08-02T06:38:16.260Z,74.19
2022-08-02T06:41:23.839Z,73.44
2022-08-02T06:44:47.951Z,71.89
2022-08-02T06:47:51.464Z,71.72
2022-08-02T06:50:55.293Z,70.95
2022-08-02T06:53:59.015Z,69.89
2022-08-02T06:57:04.059Z,69.22
2022-08-02T07:00:09.974Z,68.94
2022-08-02T07:03:13.916Z,66.99
2022-08-02T07:06:17.635Z,66.94
2022-08-02T07:09:22.195Z,66.52
2022-08-02T07:12:29.895Z,65.63
2022-08-02T07:15:34.847Z,63.90
2022-08-02T07:18:38.473Z,63.39
2022-08-02T07:21:56.667Z,62.57
2022-08-02T07:25:06.240Z,62.84
2022-08-02T07:28:23.587Z,61.96
2022-08-02T07:31:27.877Z,61.81
2022-08-02T07:34:31.447Z,61.47
2022-08-02T07:37:55.626Z,61.23
2022-08-02T07:41:02.459Z,61.42
2022-08-02T07:44:07.687Z,59.33
2022-08-02T07:47:11.577Z,59.66
2022-08-02T07:50:19.128Z,58.20
2022-08-02T07:53:49.721Z,57.48
2022-08-02T07:56:46.407Z,56.22
2022-08-02T07:59:56.038Z,57.50
2022-08-02T08:03:00.477Z,57.18
2022-08-02T08:06:04.176Z,56.04
2022-08-02T08:09:07.951Z,56.78
2022-08-02T08:12:13.482Z,56.62
2022-08-02T08:15:18.828Z,55.28
2022-08-02T08:18:23.564Z,54.81
2022-08-02T08:21:27.296Z,54.58
2022-08-02T08:24:31.716Z,54.79
2022-08-02T08:27:35.790Z,53.32
2022-08-02T08:30:42.635Z,53.71
2022-08-02T08:33:46.268Z,52.66
2022-08-02T08:36:50.207Z,53.45
2022-08-02T08:39:58.258Z,52.78
2022-08-02T08:43:02.459Z,52.00
2022-08-02T08:46:12.275Z,52.40
2022-08-02T08:49:26.749Z,53.20
2022-08-02T08:52:36.736Z,52.73
2022-08-02T08:55:40.698Z,51.65
2022-08-02T08:58:46.169Z,51.96
2022-08-02T09:01:52.824Z,50.51
2022-08-02T09:04:56.731Z,50.29
2022-08-02T09:08:00.420Z,49.09
2022-08-02T09:11:14.083Z,48.00
2022-08-02T09:14:29.595Z,47.69
2022-08-02T09:17:34.687Z,47.42
2022-08-02T09:20:57.512Z,47.37
2022-08-02T09:24:02.221Z,48.53
2022-08-02T09:27:14.162Z,46.14
2022-08-02T09:30:18.575Z,45.68
2022-08-02T09:33:29.279Z,45.39
2022-08-02T09:36:41.775Z,44.93
2022-08-02T09:39:46.577Z,46.21
2022-08-02T09:43:00.776Z,44.81
2022-08-02T09:46:13.849Z,44.07
2022-08-02T09:49:20.469Z,45.45
2022-08-02T09:52:37.102Z,44.43
2022-08-02T09:55:57.301Z,43.44
2022-08-02T09:59:08.944Z,43.63
2022-08-02T10:02:16.921Z,43.28
2022-08-02T10:05:23.420Z,42.05
2022-08-02T10:08:29.483Z,40.50
2022-08-02T10:11:37.436Z,40.60
2022-08-02T10:14:41.363Z,40.97
2022-08-02T10:17:46.469Z,40.54
2022-08-02T10:20:56.034Z,40.20
2022-08-02T10:24:08.999Z,41.60
2022-08-02T10:27:18.943Z,41.07
2022-08-02T10:30:26.119Z,41.15
2022-08-02T10:33:36.011Z,41.71
2022-08-02T10:36:43.705Z,41.04
2022-08-02T10:39:50.802Z,41.25
2022-08-02T10:43:00.590Z,41.04
2022-08-02T10:46:32.903Z,40.58
2022-08-02T10:49:50.861Z,39.50
2022-08-02T10:53:29.959Z,40.38
2022-08-02T10:56:49.000Z,39.74
2022-08-02T10:59:57.424Z,40.20
2022-08-02T11:03:01.170Z,39.83
2022-08-02T11:06:07.663Z,40.57
2022-08-02T11:09:33.352Z,40.67
2022-08-02T11:13:03.015Z,39.97
2022-08-02T11:16:11.639Z,40.38
2022-08-02T11:19:15.643Z,40.75
2022-08-02T11:22:23.843Z,40.39
2022-08-02T11:29:00.820Z,40.37
2022-08-02T11:32:05.272Z,39.65
2022-08-02T11:35:10.484Z,39.48
2022-08-02T11:38:19.803Z,38.58
2022-08-02T11:41:46.265Z,38.11
2022-08-02T11:44:49.359Z,38.94
2022-08-02T11:47:55.962Z,38.88
2022-08-02T11:51:11.164Z,37.89
2022-08-02T11:54:24.171Z,38.63
2022-08-02T11:57:29.296Z,39.74
2022-08-02T12:00:54.913Z,40.68
2022-08-02T12:04:01.022Z,40.23
2022-08-02T12:07:07.323Z,41.20
2022-08-02T12:10:16.990Z,40.37
2022-08-02T12:13:24.378Z,39.95
2022-08-02T12:16:55.720Z,39.85
2022-08-02T12:19:59.432Z,40.06
2022-08-02T12:23:05.053Z,40.68
2022-08-02T12:26:16.004Z,40.45
2022-08-02T12:29:58.253Z,40.38
2022-08-02T12:33:13.282Z,40.89
2022-08-02T12:36:18.129Z,40.80
2022-08-02T12:39:21.766Z,41.80
2022-08-02T12:42:27.248Z,41.62
2022-08-02T12:45:48.865Z,42.08
2022-08-02T12:49:16.736Z,42.33
2022-08-02T12:52:21.893Z,42.88
2022-08-02T12:56:00.075Z,42.01
2022-08-02T12:58:52.283Z,43.23
2022-08-02T13:02:04.528Z,41.91
2022-08-02T13:05:08.808Z,42.82
2022-08-02T13:08:12.961Z,42.43
2022-08-02T13:11:17.251Z,42.20
2022-08-02T13:14:21.076Z,42.14
2022-08-02T13:17:26.105Z,42.27
2022-08-02T13:20:31.348Z,42.17
2022-08-02T13:23:54.206Z,42.54
2022-08-02T13:26:59.020Z,43.01
2022-08-02T13:30:10.085Z,42.96
2022-08-02T13:33:16.164Z,43.49
2022-08-02T13:36:19.949Z,43.82
2022-08-02T13:39:23.684Z,43.10
2022-08-02T13:42:27.315Z,42.83
2022-08-02T13:45:31.085Z,42.44
2022-08-02T13:48:36.285Z,43.06
2022-08-02T13:51:39.874Z,43.47
2022-08-02T13:54:43.543Z,43.66
2022-08-02T13:57:53.619Z,42.59
2022-08-02T14:00:58.119Z,42.99
2022-08-02T14:04:08.024Z,42.39
2022-08-02T14:07:13.012Z,42.57
2022-08-02T14:10:16.837Z,42.10
2022-08-02T14:13:20.971Z,43.05
2022-08-02T14:16:24.790Z,43.67
2022-08-02T14:19:38.366Z,42.86
2022-08-02T14:22:43.944Z,43.01
2022-08-02T14:25:47.731Z,43.06
2022-08-02T14:28:51.563Z,43.09
2022-08-02T14:31:55.442Z,42.17
2022-08-02T14:35:00.667Z,41.96
2022-08-02T14:38:04.523Z,41.04
2022-08-02T14:41:08.384Z,39.43
2022-08-02T14:44:12.133Z,40.31
2022-08-02T14:47:15.923Z,39.34
2022-08-02T14:50:21.757Z,39.16
2022-08-02T14:53:25.497Z,39.14
2022-08-02T14:56:29.648Z,38.54
2022-08-02T14:59:33.372Z,38.62
2022-08-02T15:02:37.140Z,38.54
2022-08-02T15:05:42.235Z,39.35
2022-08-02T15:08:45.993Z,40.25
2022-08-02T15:11:50.025Z,40.27
2022-08-02T15:14:53.981Z,40.82
2022-08-02T15:17:57.667Z,39.74
2022-08-02T15:21:07.995Z,40.88
2022-08-02T15:24:27.108Z,41.31
2022-08-02T15:27:30.823Z,41.40
2022-08-02T15:30:34.628Z,40.94
2022-08-02T15:33:38.363Z,40.61
2022-08-02T15:36:43.367Z,41.03
2022-08-02T15:39:47.244Z,41.70
2022-08-02T15:42:53.762Z,41.65
2022-08-02T15:45:57.552Z,41.38
2022-08-02T15:49:01.420Z,41.44
2022-08-02T15:52:07.247Z,41.72
2022-08-02T15:55:10.909Z,42.17
2022-08-02T15:58:16.792Z,42.97
2022-08-02T16:01:21.594Z,43.15
2022-08-02T16:04:25.387Z,42.64
2022-08-02T16:07:30.448Z,42.91
2022-08-02T16:10:34.181Z,42.95
2022-08-02T16:13:54.617Z,43.45
2022-08-02T16:16:58.487Z,43.71
2022-08-02T16:20:02.230Z,43.93
2022-08-02T16:23:07.704Z,44.39
2022-08-02T16:26:11.449Z,44.88
2022-08-02T16:29:19.198Z,44.46
2022-08-02T16:32:23.369Z,44.51
2022-08-02T16:35:28.159Z,44.93
2022-08-02T16:38:33.424Z,45.43
2022-08-02T16:41:51.925Z,45.59
2022-08-02T16:44:56.679Z,45.59
2022-08-02T16:48:03.613Z,45.53
2022-08-02T16:51:13.594Z,45.78
2022-08-02T16:54:19.164Z,45.63
2022-08-02T16:57:22.910Z,45.44
2022-08-02T17:00:26.645Z,45.13
2022-08-02T17:03:55.556Z,44.63
2022-08-02T17:06:54.038Z,45.09
2022-08-02T17:10:06.500Z,44.81
2022-08-02T17:13:12.808Z,44.61
2022-08-02T17:16:20.778Z,44.75
2022-08-02T17:19:29.779Z,44.19
2022-08-02T17:22:44.313Z,44.55
2022-08-02T17:25:52.776Z,44.48
2022-08-02T17:29:15.405Z,44.75
2022-08-02T17:32:20.442Z,45.01
2022-08-02T17:35:24.324Z,44.94
2022-08-02T17:38:28.659Z,45.16
2022-08-02T17:41:39.086Z,45.54
2022-08-02T17:44:55.277Z,45.43
2022-08-02T17:48:10.852Z,45.67
2022-08-02T17:52:15.921Z,46.03
2022-08-02T17:54:42.349Z,46.15
2022-08-02T17:57:57.821Z,46.71
2022-08-02T18:01:23.457Z,47.38
2022-08-02T18:04:29.868Z,47.81
2022-08-02T18:07:49.135Z,48.53
2022-08-02T18:10:55.965Z,48.48
2022-08-02T18:14:01.121Z,48.73
2022-08-02T18:17:06.580Z,48.31
2022-08-02T18:20:12.305Z,48.32
2022-08-02T18:23:17.641Z,48.53
2022-08-02T18:26:22.193Z,48.70
2022-08-02T18:29:30.200Z,49.29
2022-08-02T18:36:06.644Z,49.76
2022-08-02T18:39:10.387Z,50.26
2022-08-02T18:42:15.576Z,50.66
2022-08-02T18:45:22.902Z,51.38
2022-08-02T18:48:29.974Z,51.15
2022-08-02T18:51:36.579Z,52.05
2022-08-02T18:54:40.460Z,52.25
2022-08-02T18:58:01.800Z,52.74
2022-08-02T19:01:14.788Z,53.42
2022-08-02T19:04:27.166Z,53.47
2022-08-02T19:07:50.984Z,53.25
2022-08-02T19:10:56.361Z,53.42
2022-08-02T19:14:01.056Z,54.00
2022-08-02T19:17:15.786Z,53.94
2022-08-02T19:20:31.314Z,54.13
2022-08-02T19:23:35.495Z,54.60
2022-08-02T19:26:40.824Z,54.80
2022-08-02T19:29:48.680Z,55.17
2022-08-02T19:32:59.230Z,55.46
2022-08-02T19:36:05.093Z,55.40
2022-08-02T19:39:08.691Z,55.49
2022-08-02T19:42:12.361Z,55.46
2022-08-02T19:45:16.346Z,55.82
2022-08-02T19:48:23.845Z,55.83
2022-08-02T19:51:49.715Z,56.23
2022-08-02T19:58:16.968Z,57.88
2022-08-02T20:01:28.289Z,58.59
2022-08-02T20:04:42.485Z,59.18
2022-08-02T20:07:56.181Z,59.53
2022-08-02T20:11:00.313Z,59.94
2022-08-02T20:14:05.811Z,60.27
2022-08-02T20:17:11.673Z,60.98
2022-08-02T20:20:16.988Z,61.43
2022-08-02T20:23:32.413Z,62.18
2022-08-02T20:26:47.926Z,62.62
2022-08-02T20:29:52.636Z,63.04
2022-08-02T20:33:21.013Z,63.40
2022-08-02T20:36:22.983Z,63.63
2022-08-02T20:39:42.890Z,63.87
2022-08-02T20:42:48.562Z,64.35
2022-08-02T20:45:52.428Z,64.04
2022-08-02T20:48:59.526Z,64.32
2022-08-02T20:52:23.748Z,64.61
2022-08-02T20:55:30.860Z,64.89
2022-08-02T20:58:35.343Z,65.18
2022-08-02T21:01:39.947Z,65.63
2022-08-02T21:05:00.799Z,65.76
2022-08-02T21:08:15.012Z,66.02
2022-08-02T21:11:19.245Z,66.35
2022-08-02T21:14:29.023Z,66.82
2022-08-02T21:17:46.688Z,66.91
2022-08-02T21:20:56.222Z,67.27
2022-08-02T21:27:53.226Z,67.68
2022-08-02T21:30:48.571Z,67.70
2022-08-02T21:33:57.827Z,67.78
2022-08-02T21:37:09.919Z,67.78
2022-08-02T21:40:15.522Z,67.95
2022-08-02T21:43:20.018Z,67.95
2022-08-02T21:46:39.255Z,68.06
2022-08-02T21:50:13.645Z,67.89
2022-08-02T21:53:13.289Z,67.84
2022-08-02T21:56:23.876Z,67.60
2022-08-02T21:59:27.607Z,67.36
2022-08-02T22:02:31.378Z,67.41
2022-08-02T22:05:37.184Z,67.51
2022-08-02T22:08:41.161Z,67.68
2022-08-02T22:11:47.015Z,68.04
2022-08-02T22:14:54.157Z,68.50
2022-08-02T22:18:00.097Z,69.10
2022-08-02T22:21:14.216Z,69.61
2022-08-02T22:24:30.286Z,69.68
2022-08-02T22:28:35.360Z,70.05
2022-08-02T22:31:04.464Z,70.58
2022-08-02T22:34:11.655Z,71.02
2022-08-02T22:40:55.429Z,71.34
2022-08-02T22:44:00.565Z,71.46
2022-08-02T22:47:11.693Z,71.81
2022-08-02T22:50:19.187Z,72.22
2022-08-02T22:53:35.892Z,72.52
2022-08-02T22:56:39.960Z,72.72
2022-08-02T22:58:44.769Z,49.61
2022-08-02T22:58:53.721Z,57.02
2022-08-02T22:59:02.657Z,67.52
2022-08-02T22:59:49.804Z,72.95
2022-08-02T23:02:53.659Z,73.27
2022-08-02T23:05:58.117Z,73.72
2022-08-02T23:09:01.669Z,74.07
2022-08-02T23:12:06.664Z,73.83
2022-08-02T23:15:13.643Z,74.03
2022-08-02T23:18:34.573Z,74.32
2022-08-02T23:21:45.700Z,74.41
2022-08-02T23:25:03.375Z,74.25
2022-08-02T23:28:07.199Z,74.68
2022-08-02T23:31:33.270Z,74.81
2022-08-02T23:34:41.608Z,75.06
2022-08-02T23:38:00.024Z,75.01
2022-08-02T23:41:05.504Z,74.94
2022-08-02T23:44:16.337Z,74.84
2022-08-02T23:47:21.893Z,74.82
2022-08-02T23:50:25.784Z,74.89
2022-08-02T23:53:30.246Z,75.15
2022-08-02T23:56:33.917Z,75.13
2022-08-02T23:59:37.613Z,75.41
